createdAt,value
2023-12-10T00:02:01.774Z,-2.02
2023-12-10T00:07:08.210Z,-2.14
2023-12-10T00:12:14.252Z,-2.22
2023-12-10T00:17:20.668Z,-2.21
2023-12-10T00:22:27.544Z,-2.24
2023-12-10T00:27:34.013Z,-2.32
2023-12-10T00:32:39.933Z,-2.37
2023-12-10T00:37:45.862Z,-2.41
2023-12-10T00:42:52.544Z,-2.44
2023-12-10T00:47:58.832Z,-2.44
2023-12-10T00:53:06.494Z,-2.45
2023-12-10T00:58:12.948Z,-2.46
2023-12-10T01:03:19.726Z,-2.46
2023-12-10T01:08:25.707Z,-2.48
2023-12-10T01:13:31.668Z,-2.52
2023-12-10T01:18:38.978Z,-2.56
2023-12-10T01:23:45.059Z,-2.59
2023-12-10T01:28:51.448Z,-2.63
2023-12-10T01:33:58.334Z,-2.61
2023-12-10T01:39:02.749Z,-2.58
2023-12-10T01:44:09.250Z,-2.58
2023-12-10T01:49:15.934Z,-2.59
2023-12-10T01:54:25.993Z,-2.52
2023-12-10T01:59:32.570Z,-2.45
2023-12-10T02:04:38.694Z,-2.43
2023-12-10T02:09:44.745Z,-2.42
2023-12-10T02:14:50.645Z,-2.41
2023-12-10T02:19:56.629Z,-2.44
2023-12-10T02:25:07.798Z,-2.43
2023-12-10T02:30:16.877Z,-2.37
2023-12-10T02:35:23.150Z,-2.35
2023-12-10T02:40:29.143Z,-2.33
2023-12-10T02:45:35.245Z,-2.31
2023-12-10T02:50:41.287Z,-2.29
2023-12-10T02:55:47.588Z,-2.30
2023-12-10T03:00:53.722Z,-2.32
2023-12-10T03:06:00.419Z,-2.31
2023-12-10T03:11:06.852Z,-2.29
2023-12-10T03:16:13.047Z,-2.28
2023-12-10T03:21:19.015Z,-2.26
2023-12-10T03:26:24.962Z,-2.24
2023-12-10T03:31:30.904Z,-2.22
2023-12-10T03:36:36.857Z,-2.21
2023-12-10T03:41:42.934Z,-2.22
2023-12-10T03:46:48.883Z,-2.23
2023-12-10T03:51:54.920Z,-2.23
2023-12-10T03:57:01.009Z,-2.22
2023-12-10T04:02:07.278Z,-2.22
2023-12-10T04:07:13.654Z,-2.21
2023-12-10T04:12:19.588Z,-2.22
2023-12-10T04:17:27.042Z,-2.23
2023-12-10T04:22:33.004Z,-2.25
2023-12-10T04:27:38.995Z,-2.25
2023-12-10T04:32:45.043Z,-2.24
2023-12-10T04:37:51.106Z,-2.23
2023-12-10T04:42:57.133Z,-2.20
2023-12-10T04:48:03.272Z,-2.20
2023-12-10T04:53:09.352Z,-2.16
2023-12-10T04:58:15.987Z,-2.15
2023-12-10T05:03:22.310Z,-2.10
2023-12-10T05:08:28.390Z,-2.08
2023-12-10T05:13:34.858Z,-2.06
2023-12-10T05:18:40.967Z,-2.03
2023-12-10T05:23:47.067Z,-2.01
2023-12-10T05:28:53.025Z,-1.97
2023-12-10T05:33:59.105Z,-1.94
2023-12-10T05:39:05.567Z,-1.93
2023-12-10T05:44:11.510Z,-1.90
2023-12-10T05:49:17.541Z,-1.87
2023-12-10T05:54:23.890Z,-1.84
2023-12-10T05:59:30.162Z,-1.84
2023-12-10T06:04:36.177Z,-1.84
2023-12-10T06:09:42.335Z,-1.81
2023-12-10T06:14:48.313Z,-1.79
2023-12-10T06:19:54.590Z,-1.78
2023-12-10T06:25:00.636Z,-1.76
2023-12-10T06:30:09.988Z,-1.74
2023-12-10T06:35:16.130Z,-1.72
2023-12-10T06:40:22.066Z,-1.70
2023-12-10T06:45:28.292Z,-1.67
2023-12-10T06:50:34.269Z,-1.66
2023-12-10T06:55:40.819Z,-1.66
2023-12-10T07:00:46.889Z,-1.63
2023-12-10T07:05:54.140Z,-1.60
2023-12-10T07:11:01.013Z,-1.58
2023-12-10T07:16:07.711Z,-1.56
2023-12-10T07:21:14.670Z,-1.50
2023-12-10T07:26:24.677Z,-1.45
2023-12-10T07:31:31.329Z,-1.41
2023-12-10T07:36:40.320Z,-1.37
2023-12-10T07:41:46.702Z,-1.35
2023-12-10T07:46:52.807Z,-1.33
2023-12-10T07:51:58.833Z,-1.31
2023-12-10T07:57:05.071Z,-1.26
2023-12-10T08:02:11.095Z,-1.20
2023-12-10T08:07:17.285Z,-1.12
2023-12-10T08:12:23.451Z,-1.03
2023-12-10T08:17:29.393Z,-0.98
2023-12-10T08:22:35.527Z,-0.92
2023-12-10T08:27:41.681Z,-0.85
2023-12-10T08:32:47.659Z,-0.77
2023-12-10T08:37:53.577Z,-0.68
2023-12-10T08:42:59.545Z,-0.62
2023-12-10T08:48:06.176Z,-0.54
2023-12-10T08:53:12.114Z,-0.44
2023-12-10T08:58:19.456Z,-0.31
2023-12-10T09:03:25.516Z,-0.20
2023-12-10T09:08:31.662Z,-0.09
2023-12-10T09:13:38.115Z,-0.02
2023-12-10T09:18:45.020Z,0.05
2023-12-10T09:23:51.427Z,0.10
2023-12-10T09:28:57.428Z,0.14
2023-12-10T09:34:03.528Z,0.19
2023-12-10T09:39:10.206Z,0.25
2023-12-10T09:44:16.192Z,0.31
2023-12-10T09:49:24.579Z,0.37
2023-12-10T09:54:31.112Z,0.43
2023-12-10T09:59:37.419Z,0.49
2023-12-10T10:04:44.832Z,0.55
2023-12-10T10:09:52.608Z,0.62
2023-12-10T10:14:59.844Z,0.68
2023-12-10T10:20:06.869Z,0.73
2023-12-10T10:25:14.216Z,0.76
2023-12-10T10:30:20.517Z,0.78
2023-12-10T10:35:26.574Z,0.80
2023-12-10T10:40:33.056Z,0.81
2023-12-10T10:45:47.163Z,0.84
2023-12-10T10:50:55.529Z,0.88
2023-12-10T10:56:02.430Z,0.91
2023-12-10T11:01:28.775Z,0.91
2023-12-10T11:06:37.127Z,0.90
2023-12-10T11:11:43.295Z,0.88
2023-12-10T11:16:52.738Z,0.87
2023-12-10T11:21:58.748Z,0.84
2023-12-10T11:27:04.923Z,0.81
2023-12-10T11:32:11.427Z,0.79
2023-12-10T11:37:17.400Z,0.77
2023-12-10T11:42:23.369Z,0.77
2023-12-10T11:47:30.268Z,0.77
2023-12-10T11:52:37.124Z,0.77
2023-12-10T11:57:47.053Z,0.79
2023-12-10T12:02:54.274Z,0.81
2023-12-10T12:08:02.011Z,0.81
2023-12-10T12:13:08.919Z,0.83
2023-12-10T12:18:15.207Z,0.85
2023-12-10T12:23:21.142Z,0.85
2023-12-10T12:28:27.378Z,0.85
2023-12-10T12:33:33.617Z,0.85
2023-12-10T12:38:39.613Z,0.87
2023-12-10T12:43:45.560Z,0.89
2023-12-10T12:48:51.753Z,0.90
2023-12-10T12:54:11.884Z,0.93
2023-12-10T12:59:20.085Z,0.97
2023-12-10T13:04:26.271Z,1.00
2023-12-10T13:09:32.541Z,1.03
2023-12-10T13:14:39.002Z,1.04
2023-12-10T13:19:45.343Z,1.08
2023-12-10T13:24:51.382Z,1.11
2023-12-10T13:29:57.579Z,1.11
2023-12-10T13:35:03.826Z,1.11
2023-12-10T13:40:13.045Z,1.13
2023-12-10T13:45:19.001Z,1.15
2023-12-10T13:50:25.507Z,1.19
2023-12-10T13:55:31.906Z,1.20
2023-12-10T14:00:37.949Z,1.22
2023-12-10T14:05:44.577Z,1.22
2023-12-10T14:10:50.616Z,1.21
2023-12-10T14:15:57.343Z,1.21
2023-12-10T14:21:01.729Z,1.20
2023-12-10T14:26:07.859Z,1.19
2023-12-10T14:31:13.780Z,1.19
2023-12-10T14:36:19.776Z,1.18
2023-12-10T14:41:25.881Z,1.17
2023-12-10T14:46:33.416Z,1.16
2023-12-10T14:51:39.487Z,1.15
2023-12-10T14:56:47.604Z,1.14
2023-12-10T15:02:01.842Z,1.10
2023-12-10T15:07:15.335Z,1.08
2023-12-10T15:12:21.271Z,1.06
2023-12-10T15:17:27.496Z,1.05
2023-12-10T15:22:33.714Z,1.05
2023-12-10T15:27:39.872Z,1.06
2023-12-10T15:32:46.739Z,1.06
2023-12-10T15:37:52.925Z,1.06
2023-12-10T15:42:58.894Z,1.07
2023-12-10T15:48:05.142Z,1.09
2023-12-10T15:53:11.245Z,1.10
2023-12-10T15:58:17.873Z,1.12
2023-12-10T16:03:24.459Z,1.14
2023-12-10T16:08:30.670Z,1.15
2023-12-10T16:13:36.592Z,1.19
2023-12-10T16:18:45.651Z,1.20
2023-12-10T16:23:53.051Z,1.21
2023-12-10T16:28:59.952Z,1.22
2023-12-10T16:34:05.932Z,1.24
2023-12-10T16:39:12.252Z,1.25
2023-12-10T16:44:18.109Z,1.27
2023-12-10T16:49:24.166Z,1.27
2023-12-10T16:54:30.313Z,1.27
2023-12-10T16:59:36.826Z,1.29
2023-12-10T17:04:42.947Z,1.29
2023-12-10T17:09:49.213Z,1.29
2023-12-10T17:14:55.372Z,1.29
2023-12-10T17:20:01.712Z,1.30
2023-12-10T17:25:10.731Z,1.31
2023-12-10T17:30:18.253Z,1.33
2023-12-10T17:35:24.215Z,1.33
2023-12-10T17:40:30.380Z,1.33
2023-12-10T17:45:36.470Z,1.34
2023-12-10T17:50:42.506Z,1.35
2023-12-10T17:55:48.646Z,1.35
2023-12-10T18:00:55.455Z,1.37
2023-12-10T18:06:01.665Z,1.38
2023-12-10T18:11:07.870Z,1.39
2023-12-10T18:16:23.106Z,1.41
2023-12-10T18:21:29.102Z,1.43
2023-12-10T18:26:35.025Z,1.43
2023-12-10T18:31:40.880Z,1.44
2023-12-10T18:36:46.823Z,1.45
2023-12-10T18:41:52.740Z,1.47
2023-12-10T18:46:58.641Z,1.49
2023-12-10T18:52:08.203Z,1.50
2023-12-10T18:57:14.207Z,1.53
2023-12-10T19:02:20.730Z,1.53
2023-12-10T19:07:26.814Z,1.55
2023-12-10T19:12:32.958Z,1.56
2023-12-10T19:17:39.697Z,1.57
2023-12-10T19:22:45.679Z,1.58
2023-12-10T19:27:51.727Z,1.59
2023-12-10T19:32:58.567Z,1.60
2023-12-10T19:38:04.564Z,1.61
2023-12-10T19:43:10.569Z,1.62
2023-12-10T19:48:16.963Z,1.62
2023-12-10T19:53:23.016Z,1.63
2023-12-10T19:58:29.595Z,1.64
2023-12-10T20:03:35.595Z,1.67
2023-12-10T20:08:43.524Z,1.70
2023-12-10T20:13:49.656Z,1.73
2023-12-10T20:18:55.770Z,1.75
2023-12-10T20:24:02.229Z,1.78
2023-12-10T20:29:08.861Z,1.79
2023-12-10T20:34:26.606Z,1.80
2023-12-10T20:39:38.656Z,1.81
2023-12-10T20:44:44.619Z,1.83
2023-12-10T20:49:50.509Z,1.83
2023-12-10T20:54:56.823Z,1.84
2023-12-10T21:00:05.688Z,1.84
2023-12-10T21:05:12.379Z,1.87
2023-12-10T21:10:18.430Z,1.90
2023-12-10T21:15:24.690Z,2.11
2023-12-10T21:20:31.154Z,2.53
2023-12-10T21:25:38.378Z,2.90
2023-12-10T21:30:44.248Z,3.20
2023-12-10T21:35:50.188Z,3.41
2023-12-10T21:40:56.073Z,3.58
2023-12-10T21:46:02.055Z,3.59
2023-12-10T21:51:09.654Z,3.42
2023-12-10T21:56:16.215Z,3.23
2023-12-10T22:01:21.695Z,3.06
2023-12-10T22:06:28.101Z,2.92
2023-12-10T22:11:34.293Z,2.82
2023-12-10T22:16:40.391Z,2.75
2023-12-10T22:21:46.610Z,2.70
2023-12-10T22:26:52.506Z,2.68
2023-12-10T22:31:58.369Z,2.67
2023-12-10T22:37:04.459Z,2.65
2023-12-10T22:42:10.874Z,2.63
2023-12-10T22:47:17.365Z,2.60
2023-12-10T22:52:21.605Z,2.59
2023-12-10T22:57:28.608Z,2.58
2023-12-10T23:02:34.697Z,2.58
2023-12-10T23:07:40.685Z,2.57
2023-12-10T23:12:46.686Z,2.59
2023-12-10T23:17:52.595Z,2.61
2023-12-10T23:22:58.466Z,2.61
2023-12-10T23:28:04.424Z,2.63
2023-12-10T23:33:10.417Z,2.62
2023-12-10T23:38:16.983Z,2.62
2023-12-10T23:43:21.220Z,2.62
2023-12-10T23:48:27.170Z,2.63
2023-12-10T23:53:33.310Z,2.62
2023-12-10T23:58:40.808Z,2.62
